createdAt,value
2023-03-16T00:00:45.972Z,8.00
2023-03-16T00:04:48.479Z,7.80
2023-03-16T00:08:51.171Z,7.60
2023-03-16T00:12:54.295Z,7.40
2023-03-16T00:16:56.859Z,7.30
2023-03-16T00:21:02.235Z,7.20
2023-03-16T00:25:05.136Z,7.00
2023-03-16T00:29:07.857Z,6.80
2023-03-16T00:33:12.066Z,6.70
2023-03-16T00:37:16.980Z,6.60
2023-03-16T00:41:19.654Z,6.50
2023-03-16T00:45:24.015Z,6.40
2023-03-16T00:49:27.739Z,6.30
2023-03-16T00:53:31.429Z,6.10
2023-03-16T00:57:34.315Z,6.10
2023-03-16T01:01:37.040Z,5.90
2023-03-16T01:05:40.462Z,5.90
2023-03-16T01:09:43.431Z,5.80
2023-03-16T01:13:47.557Z,5.60
2023-03-16T01:17:50.327Z,5.60
2023-03-16T01:21:53.609Z,5.50
2023-03-16T01:25:57.144Z,5.40
2023-03-16T01:30:00.191Z,5.50
2023-03-16T01:34:04.233Z,5.50
2023-03-16T01:38:08.099Z,5.70
2023-03-16T01:42:10.955Z,5.90
2023-03-16T01:46:19.586Z,6.00
2023-03-16T01:50:24.236Z,6.00
2023-03-16T01:54:31.624Z,5.80
2023-03-16T01:58:35.555Z,5.70
2023-03-16T02:02:39.858Z,5.60
2023-03-16T02:06:43.096Z,5.60
2023-03-16T02:10:46.044Z,5.50
2023-03-16T02:14:50.713Z,5.50
2023-03-16T02:18:54.410Z,5.40
2023-03-16T02:22:58.095Z,5.30
2023-03-16T02:27:10.461Z,5.30
2023-03-16T02:31:18.721Z,5.20
2023-03-16T02:35:22.737Z,5.10
2023-03-16T02:39:26.242Z,5.10
2023-03-16T02:43:33.407Z,5.10
2023-03-16T02:47:48.080Z,5.00
2023-03-16T02:51:51.677Z,5.00
2023-03-16T02:55:54.831Z,5.00
2023-03-16T02:59:57.607Z,4.90
2023-03-16T03:04:00.513Z,4.90
2023-03-16T03:08:03.481Z,4.80
2023-03-16T03:12:06.642Z,4.90
2023-03-16T03:16:09.660Z,4.90
2023-03-16T03:20:20.212Z,5.10
2023-03-16T03:24:23.245Z,5.20
2023-03-16T03:28:25.986Z,5.30
2023-03-16T03:32:28.792Z,5.30
2023-03-16T03:36:31.771Z,5.20
2023-03-16T03:40:36.568Z,5.10
2023-03-16T03:44:40.117Z,4.90
2023-03-16T03:48:43.010Z,4.80
2023-03-16T03:52:46.032Z,4.80
2023-03-16T03:56:48.607Z,4.70
2023-03-16T04:00:52.607Z,4.60
2023-03-16T04:04:55.814Z,4.50
2023-03-16T04:08:58.630Z,4.40
2023-03-16T04:13:02.961Z,4.40
2023-03-16T04:17:08.787Z,4.40
2023-03-16T04:21:18.083Z,4.40
2023-03-16T04:25:22.885Z,4.50
2023-03-16T04:29:25.591Z,4.50
2023-03-16T04:33:29.124Z,4.50
2023-03-16T04:37:32.445Z,4.40
2023-03-16T04:41:35.405Z,4.30
2023-03-16T04:45:46.314Z,4.10
2023-03-16T04:49:49.011Z,4.10
2023-03-16T04:53:52.447Z,4.10
2023-03-16T04:58:03.272Z,4.00
2023-03-16T05:02:09.739Z,4.00
2023-03-16T05:06:13.413Z,3.90
2023-03-16T05:10:18.924Z,3.90
2023-03-16T05:14:22.818Z,3.90
2023-03-16T05:18:45.542Z,3.80
2023-03-16T05:22:50.998Z,3.90
2023-03-16T05:26:59.131Z,3.90
2023-03-16T05:31:03.877Z,4.00
2023-03-16T05:35:13.760Z,4.10
2023-03-16T05:39:17.002Z,4.10
2023-03-16T05:43:23.266Z,4.20
2023-03-16T05:47:28.782Z,4.30
2023-03-16T05:51:36.693Z,4.40
2023-03-16T05:55:41.928Z,4.50
2023-03-16T05:59:48.774Z,4.50
2023-03-16T06:03:54.815Z,4.50
2023-03-16T06:08:02.786Z,4.50
2023-03-16T06:12:06.054Z,4.50
2023-03-16T06:16:11.676Z,4.50
2023-03-16T06:20:14.892Z,4.50
2023-03-16T06:24:19.595Z,4.50
2023-03-16T06:28:22.711Z,4.50
2023-03-16T06:32:25.945Z,4.60
2023-03-16T06:36:29.876Z,4.70
2023-03-16T06:40:37.890Z,4.70
2023-03-16T06:44:42.714Z,4.80
2023-03-16T06:48:48.662Z,5.10
2023-03-16T06:52:51.721Z,5.40
2023-03-16T06:56:56.915Z,5.70
2023-03-16T07:01:01.588Z,5.90
2023-03-16T07:05:04.982Z,6.20
2023-03-16T07:09:07.742Z,6.50
2023-03-16T07:13:11.469Z,6.80
2023-03-16T07:17:14.172Z,7.10
2023-03-16T07:21:16.882Z,7.40
2023-03-16T07:25:21.457Z,7.80
2023-03-16T07:29:29.031Z,8.20
2023-03-16T07:33:33.631Z,8.60
2023-03-16T07:37:40.068Z,9.00
2023-03-16T07:41:44.080Z,9.20
2023-03-16T07:45:52.469Z,9.50
2023-03-16T07:49:55.854Z,9.70
2023-03-16T07:53:59.485Z,9.80
2023-03-16T07:58:06.324Z,9.90
2023-03-16T08:02:16.256Z,9.90
2023-03-16T08:06:37.904Z,10.00
2023-03-16T08:10:41.666Z,10.10
2023-03-16T08:14:51.516Z,10.30
2023-03-16T08:19:01.336Z,10.50
2023-03-16T08:23:04.576Z,10.60
2023-03-16T08:27:13.803Z,10.90
2023-03-16T08:31:21.211Z,11.00
2023-03-16T08:35:32.978Z,11.10
2023-03-16T08:39:35.777Z,11.30
2023-03-16T08:43:42.492Z,11.50
2023-03-16T08:47:46.084Z,11.80
2023-03-16T08:51:51.213Z,11.90
2023-03-16T08:56:01.014Z,11.90
2023-03-16T09:00:12.721Z,12.00
2023-03-16T09:04:15.326Z,12.00
2023-03-16T09:08:18.494Z,12.10
2023-03-16T09:12:22.376Z,12.10
2023-03-16T09:16:25.889Z,12.40
2023-03-16T09:20:30.041Z,12.60
2023-03-16T09:24:32.917Z,12.70
2023-03-16T09:28:36.160Z,13.00
2023-03-16T09:32:38.759Z,13.00
2023-03-16T09:36:42.179Z,13.20
2023-03-16T09:40:47.137Z,13.40
2023-03-16T09:44:50.144Z,13.60
2023-03-16T09:48:54.176Z,13.60
2023-03-16T09:53:15.491Z,13.70
2023-03-16T09:57:36.145Z,13.70
2023-03-16T10:01:54.089Z,13.90
2023-03-16T10:06:01.026Z,13.70
2023-03-16T10:10:15.956Z,13.50
2023-03-16T10:14:30.888Z,13.40
2023-03-16T10:18:39.347Z,13.50
2023-03-16T10:22:46.902Z,13.80
2023-03-16T10:26:54.526Z,13.90
2023-03-16T10:30:59.146Z,14.00
2023-03-16T10:35:16.915Z,14.00
2023-03-16T10:39:19.993Z,14.20
2023-03-16T10:43:22.842Z,14.40
2023-03-16T10:47:28.815Z,14.50
2023-03-16T10:51:33.562Z,14.50
2023-03-16T10:55:41.944Z,14.70
2023-03-16T10:59:48.839Z,14.80
2023-03-16T11:03:53.228Z,15.00
2023-03-16T11:08:00.461Z,14.90
2023-03-16T11:12:24.211Z,14.80
2023-03-16T11:16:39.364Z,15.00
2023-03-16T11:20:42.107Z,15.20
2023-03-16T11:24:53.900Z,15.20
2023-03-16T11:29:09.493Z,15.30
2023-03-16T11:33:14.135Z,15.10
2023-03-16T11:37:43.499Z,15.20
2023-03-16T11:41:46.330Z,15.20
2023-03-16T11:45:58.232Z,15.30
2023-03-16T11:50:11.617Z,15.40
2023-03-16T11:54:14.201Z,15.30
2023-03-16T11:58:17.245Z,15.50
2023-03-16T12:02:29.638Z,15.80
2023-03-16T12:06:32.204Z,16.10
2023-03-16T12:10:41.945Z,16.10
2023-03-16T12:14:52.609Z,16.20
2023-03-16T12:19:16.962Z,16.20
2023-03-16T12:23:32.285Z,16.20
2023-03-16T12:27:37.719Z,16.40
2023-03-16T12:32:03.766Z,16.30
2023-03-16T12:36:09.612Z,16.20
2023-03-16T12:40:22.402Z,16.30
2023-03-16T12:44:25.103Z,16.30
2023-03-16T12:48:30.252Z,16.20
2023-03-16T12:52:43.306Z,16.40
2023-03-16T12:56:47.049Z,16.20
2023-03-16T13:00:56.939Z,16.10
2023-03-16T13:05:00.839Z,16.00
2023-03-16T13:09:04.812Z,16.10
2023-03-16T13:13:13.045Z,16.10
2023-03-16T13:17:15.791Z,16.10
2023-03-16T13:21:20.458Z,16.00
2023-03-16T13:25:25.856Z,15.90
2023-03-16T13:29:29.198Z,16.00
2023-03-16T13:33:33.155Z,15.90
2023-03-16T13:37:35.811Z,15.90
2023-03-16T13:41:38.480Z,15.90
2023-03-16T13:45:41.526Z,15.90
2023-03-16T13:49:54.370Z,15.90
2023-03-16T13:53:57.000Z,15.70
2023-03-16T13:57:59.828Z,15.70
2023-03-16T14:02:02.418Z,15.70
2023-03-16T14:06:05.875Z,15.80
2023-03-16T14:10:11.193Z,15.80
2023-03-16T14:14:17.493Z,15.60
2023-03-16T14:18:22.946Z,15.50
2023-03-16T14:22:29.515Z,15.40
2023-03-16T14:26:42.130Z,15.40
2023-03-16T14:30:51.949Z,15.20
2023-03-16T14:35:01.586Z,15.10
2023-03-16T14:39:19.503Z,15.20
2023-03-16T14:43:27.033Z,15.40
2023-03-16T14:47:31.049Z,15.40
2023-03-16T14:51:34.650Z,15.30
2023-03-16T14:55:37.905Z,15.30
2023-03-16T14:59:40.636Z,15.30
2023-03-16T15:03:43.792Z,15.40
2023-03-16T15:07:46.989Z,15.30
2023-03-16T15:11:49.608Z,15.20
2023-03-16T15:15:52.476Z,15.10
2023-03-16T15:19:55.068Z,15.00
2023-03-16T15:24:00.454Z,15.00
2023-03-16T15:28:05.498Z,15.00
2023-03-16T15:32:12.738Z,15.00
2023-03-16T15:36:16.979Z,14.90
2023-03-16T15:40:23.939Z,15.00
2023-03-16T15:44:27.157Z,15.00
2023-03-16T15:48:29.873Z,14.80
2023-03-16T15:52:34.116Z,14.80
2023-03-16T15:56:52.717Z,14.50
2023-03-16T16:00:57.790Z,14.40
2023-03-16T16:05:00.816Z,14.10
2023-03-16T16:09:03.609Z,14.20
2023-03-16T16:13:07.196Z,14.10
2023-03-16T16:17:15.788Z,14.10
2023-03-16T16:21:24.594Z,14.10
2023-03-16T16:25:29.969Z,14.20
2023-03-16T16:29:33.888Z,14.10
2023-03-16T16:33:37.316Z,14.00
2023-03-16T16:37:39.825Z,13.90
2023-03-16T16:41:42.707Z,13.80
2023-03-16T16:45:45.600Z,13.90
2023-03-16T16:49:49.504Z,14.40
2023-03-16T16:53:53.150Z,14.80
2023-03-16T16:57:56.113Z,15.10
2023-03-16T17:02:00.481Z,15.20
2023-03-16T17:06:03.064Z,15.10
2023-03-16T17:10:06.300Z,14.90
2023-03-16T17:14:09.401Z,14.50
2023-03-16T17:18:13.331Z,14.10
2023-03-16T17:22:21.892Z,13.50
2023-03-16T17:26:26.186Z,13.00
2023-03-16T17:30:29.946Z,12.50
2023-03-16T17:34:32.996Z,12.20
2023-03-16T17:38:35.951Z,11.90
2023-03-16T17:42:38.412Z,11.60
2023-03-16T17:46:41.422Z,11.50
2023-03-16T17:50:46.164Z,11.30
2023-03-16T17:54:49.818Z,11.10
2023-03-16T17:58:53.360Z,11.00
2023-03-16T18:02:59.879Z,10.90
2023-03-16T18:07:03.099Z,10.80
2023-03-16T18:11:08.098Z,10.70
2023-03-16T18:15:16.507Z,10.50
2023-03-16T18:19:25.295Z,10.50
2023-03-16T18:23:29.868Z,10.50
2023-03-16T18:27:32.862Z,10.40
2023-03-16T18:31:35.652Z,10.30
2023-03-16T18:35:38.578Z,10.30
2023-03-16T18:39:41.178Z,10.20
2023-03-16T18:43:44.369Z,10.20
2023-03-16T18:47:52.062Z,10.10
2023-03-16T18:51:55.107Z,10.10
2023-03-16T18:55:57.865Z,10.10
2023-03-16T19:00:00.711Z,10.10
2023-03-16T19:04:04.080Z,10.10
2023-03-16T19:08:06.917Z,10.00
2023-03-16T19:12:15.874Z,10.00
2023-03-16T19:16:19.107Z,10.00
2023-03-16T19:20:23.556Z,9.90
2023-03-16T19:24:32.120Z,9.80
2023-03-16T19:28:37.254Z,9.70
2023-03-16T19:32:39.822Z,9.60
2023-03-16T19:36:42.418Z,9.50
2023-03-16T19:40:46.192Z,9.50
2023-03-16T19:44:50.367Z,9.50
2023-03-16T19:48:53.006Z,9.40
2023-03-16T19:52:58.123Z,9.40
2023-03-16T19:57:07.488Z,9.30
2023-03-16T20:01:16.605Z,9.20
2023-03-16T20:05:21.164Z,9.20
2023-03-16T20:09:23.815Z,9.20
2023-03-16T20:13:26.344Z,9.10
2023-03-16T20:17:30.197Z,9.10
2023-03-16T20:21:32.806Z,9.10
2023-03-16T20:25:36.145Z,9.00
2023-03-16T20:29:38.831Z,9.00
2023-03-16T20:33:41.555Z,9.00
2023-03-16T20:37:46.572Z,9.00
2023-03-16T20:41:49.446Z,8.90
2023-03-16T20:45:54.550Z,8.80
2023-03-16T20:49:57.579Z,8.80
2023-03-16T20:54:00.114Z,8.80
2023-03-16T20:58:03.123Z,8.80
2023-03-16T21:02:19.500Z,8.70
2023-03-16T21:06:23.651Z,8.70
2023-03-16T21:10:28.100Z,8.60
2023-03-16T21:14:32.401Z,8.60
2023-03-16T21:18:34.936Z,8.50
2023-03-16T21:22:37.475Z,8.50
2023-03-16T21:26:41.336Z,8.50
2023-03-16T21:30:45.500Z,8.40
2023-03-16T21:34:49.286Z,8.30
2023-03-16T21:38:52.871Z,8.30
2023-03-16T21:42:55.764Z,8.30
2023-03-16T21:46:58.648Z,8.30
2023-03-16T21:51:01.804Z,8.20
2023-03-16T21:55:06.396Z,8.20
2023-03-16T21:59:09.308Z,8.20
2023-03-16T22:03:24.962Z,8.20
2023-03-16T22:07:27.510Z,8.30
2023-03-16T22:11:30.830Z,8.20
2023-03-16T22:15:33.583Z,8.30
2023-03-16T22:19:36.809Z,8.20
2023-03-16T22:23:39.666Z,8.20
2023-03-16T22:27:42.302Z,8.30
2023-03-16T22:31:46.753Z,8.20
2023-03-16T22:35:49.803Z,8.30
2023-03-16T22:39:53.055Z,8.30
2023-03-16T22:43:55.976Z,8.30
2023-03-16T22:48:00.225Z,8.30
2023-03-16T22:52:02.808Z,8.30
2023-03-16T22:56:05.845Z,8.10
2023-03-16T23:00:11.796Z,8.00
2023-03-16T23:04:14.456Z,7.80
2023-03-16T23:12:21.121Z,7.60
2023-03-16T23:16:28.541Z,7.30
2023-03-16T23:20:32.013Z,7.30
2023-03-16T23:24:35.430Z,7.30
2023-03-16T23:28:37.960Z,7.40
2023-03-16T23:32:40.509Z,7.50
2023-03-16T23:36:43.483Z,7.60
2023-03-16T23:40:46.557Z,7.70
2023-03-16T23:44:49.100Z,7.80
2023-03-16T23:48:53.433Z,7.80
2023-03-16T23:52:56.598Z,7.90
2023-03-16T23:56:59.193Z,7.90
